sensor_id;sensor_type;location;lat;lon;timestamp;temperature;humidity
37910;DHT22;23741;49.446;8.754;2023-08-08T00:00:18;17.40;71.80
37910;DHT22;23741;49.446;8.754;2023-08-08T00:02:20;17.30;71.80
37910;DHT22;23741;49.446;8.754;2023-08-08T00:04:22;17.30;71.70
37910;DHT22;23741;49.446;8.754;2023-08-08T00:06:24;17.30;72.50
37910;DHT22;23741;49.446;8.754;2023-08-08T00:08:26;17.30;71.70
37910;DHT22;23741;49.446;8.754;2023-08-08T00:10:27;17.20;71.80
37910;DHT22;23741;49.446;8.754;2023-08-08T00:12:29;17.20;71.60
37910;DHT22;23741;49.446;8.754;2023-08-08T00:14:31;17.20;71.50
37910;DHT22;23741;49.446;8.754;2023-08-08T00:16:33;17.20;71.70
37910;DHT22;23741;49.446;8.754;2023-08-08T00:18:34;17.20;71.80
37910;DHT22;23741;49.446;8.754;2023-08-08T00:20:36;17.20;71.90
37910;DHT22;23741;49.446;8.754;2023-08-08T00:22:38;17.20;71.90
37910;DHT22;23741;49.446;8.754;2023-08-08T00:24:40;17.10;71.90
37910;DHT22;23741;49.446;8.754;2023-08-08T00:26:42;17.10;71.80
37910;DHT22;23741;49.446;8.754;2023-08-08T00:28:43;17.10;71.80
37910;DHT22;23741;49.446;8.754;2023-08-08T00:30:45;17.10;71.90
37910;DHT22;23741;49.446;8.754;2023-08-08T00:32:47;17.10;71.90
37910;DHT22;23741;49.446;8.754;2023-08-08T00:34:49;17.10;71.90
37910;DHT22;23741;49.446;8.754;2023-08-08T00:36:51;17.10;71.90
37910;DHT22;23741;49.446;8.754;2023-08-08T00:38:53;17.00;71.80
37910;DHT22;23741;49.446;8.754;2023-08-08T00:40:55;17.00;72.00
37910;DHT22;23741;49.446;8.754;2023-08-08T00:42:57;17.00;72.10
37910;DHT22;23741;49.446;8.754;2023-08-08T00:44:59;17.00;72.00
37910;DHT22;23741;49.446;8.754;2023-08-08T00:47:05;17.00;72.10
37910;DHT22;23741;49.446;8.754;2023-08-08T00:49:07;16.90;71.90
37910;DHT22;23741;49.446;8.754;2023-08-08T00:51:09;16.90;72.00
37910;DHT22;23741;49.446;8.754;2023-08-08T00:53:11;16.90;72.20
37910;DHT22;23741;49.446;8.754;2023-08-08T00:55:13;16.90;72.20
37910;DHT22;23741;49.446;8.754;2023-08-08T00:57:16;16.90;72.20
37910;DHT22;23741;49.446;8.754;2023-08-08T00:59:19;16.90;72.20
37910;DHT22;23741;49.446;8.754;2023-08-08T01:01:20;16.90;72.30
37910;DHT22;23741;49.446;8.754;2023-08-08T01:03:22;16.90;72.30
37910;DHT22;23741;49.446;8.754;2023-08-08T01:05:24;16.90;72.30
37910;DHT22;23741;49.446;8.754;2023-08-08T01:09:58;16.90;72.70
37910;DHT22;23741;49.446;8.754;2023-08-08T01:12:08;16.90;72.70
37910;DHT22;23741;49.446;8.754;2023-08-08T01:14:12;16.90;72.50
37910;DHT22;23741;49.446;8.754;2023-08-08T01:16:15;16.90;72.40
37910;DHT22;23741;49.446;8.754;2023-08-08T01:18:19;16.90;72.40
37910;DHT22;23741;49.446;8.754;2023-08-08T01:20:21;16.90;72.40
37910;DHT22;23741;49.446;8.754;2023-08-08T01:22:35;16.80;72.30
37910;DHT22;23741;49.446;8.754;2023-08-08T01:24:37;16.80;72.30
37910;DHT22;23741;49.446;8.754;2023-08-08T01:26:41;16.80;72.20
37910;DHT22;23741;49.446;8.754;2023-08-08T01:28:43;16.80;72.30
37910;DHT22;23741;49.446;8.754;2023-08-08T01:30:45;16.80;72.10
37910;DHT22;23741;49.446;8.754;2023-08-08T01:32:48;16.80;72.10
37910;DHT22;23741;49.446;8.754;2023-08-08T01:34:50;16.80;72.20
37910;DHT22;23741;49.446;8.754;2023-08-08T01:36:59;16.80;72.20
37910;DHT22;23741;49.446;8.754;2023-08-08T01:39:11;16.70;72.10
37910;DHT22;23741;49.446;8.754;2023-08-08T01:41:15;16.70;72.40
37910;DHT22;23741;49.446;8.754;2023-08-08T01:43:18;16.70;72.30
37910;DHT22;23741;49.446;8.754;2023-08-08T01:45:20;16.80;73.00
37910;DHT22;23741;49.446;8.754;2023-08-08T01:47:24;16.70;72.20
37910;DHT22;23741;49.446;8.754;2023-08-08T01:49:26;16.60;72.20
37910;DHT22;23741;49.446;8.754;2023-08-08T01:51:29;16.70;72.40
37910;DHT22;23741;49.446;8.754;2023-08-08T01:53:31;16.70;72.20
37910;DHT22;23741;49.446;8.754;2023-08-08T01:55:33;16.60;72.20
37910;DHT22;23741;49.446;8.754;2023-08-08T01:57:35;16.60;72.40
37910;DHT22;23741;49.446;8.754;2023-08-08T01:59:37;16.60;72.20
37910;DHT22;23741;49.446;8.754;2023-08-08T02:01:38;16.60;72.20
37910;DHT22;23741;49.446;8.754;2023-08-08T02:03:40;16.60;72.30
37910;DHT22;23741;49.446;8.754;2023-08-08T02:05:51;16.60;72.30
37910;DHT22;23741;49.446;8.754;2023-08-08T02:07:53;16.60;72.50
37910;DHT22;23741;49.446;8.754;2023-08-08T02:09:55;16.60;72.40
37910;DHT22;23741;49.446;8.754;2023-08-08T02:11:59;16.60;72.40
37910;DHT22;23741;49.446;8.754;2023-08-08T02:14:01;16.60;72.30
37910;DHT22;23741;49.446;8.754;2023-08-08T02:16:03;16.50;72.10
37910;DHT22;23741;49.446;8.754;2023-08-08T02:18:05;16.50;72.20
37910;DHT22;23741;49.446;8.754;2023-08-08T02:20:07;16.50;72.20
37910;DHT22;23741;49.446;8.754;2023-08-08T02:22:09;16.50;72.30
37910;DHT22;23741;49.446;8.754;2023-08-08T02:24:11;16.50;72.20
37910;DHT22;23741;49.446;8.754;2023-08-08T02:26:13;16.50;72.00
37910;DHT22;23741;49.446;8.754;2023-08-08T02:28:15;16.40;71.90
37910;DHT22;23741;49.446;8.754;2023-08-08T02:30:18;16.40;71.90
37910;DHT22;23741;49.446;8.754;2023-08-08T02:32:20;16.40;71.70
37910;DHT22;23741;49.446;8.754;2023-08-08T02:34:22;16.40;71.60
37910;DHT22;23741;49.446;8.754;2023-08-08T02:36:24;16.40;72.00
37910;DHT22;23741;49.446;8.754;2023-08-08T02:38:26;16.30;72.10
37910;DHT22;23741;49.446;8.754;2023-08-08T02:40:28;16.30;72.10
37910;DHT22;23741;49.446;8.754;2023-08-08T02:42:30;16.30;72.20
37910;DHT22;23741;49.446;8.754;2023-08-08T02:44:32;16.40;72.10
37910;DHT22;23741;49.446;8.754;2023-08-08T02:46:34;16.30;73.00
37910;DHT22;23741;49.446;8.754;2023-08-08T02:48:36;16.30;72.40
37910;DHT22;23741;49.446;8.754;2023-08-08T02:50:37;16.30;72.30
37910;DHT22;23741;49.446;8.754;2023-08-08T02:52:40;16.30;72.20
37910;DHT22;23741;49.446;8.754;2023-08-08T02:54:42;16.30;72.50
37910;DHT22;23741;49.446;8.754;2023-08-08T02:56:44;16.30;72.10
37910;DHT22;23741;49.446;8.754;2023-08-08T02:58:47;16.30;72.30
37910;DHT22;23741;49.446;8.754;2023-08-08T03:00:49;16.20;72.20
37910;DHT22;23741;49.446;8.754;2023-08-08T03:02:52;16.20;72.30
37910;DHT22;23741;49.446;8.754;2023-08-08T03:04:54;16.20;72.40
37910;DHT22;23741;49.446;8.754;2023-08-08T03:06:59;16.20;72.50
37910;DHT22;23741;49.446;8.754;2023-08-08T03:09:05;16.20;72.60
37910;DHT22;23741;49.446;8.754;2023-08-08T03:11:07;16.10;72.50
37910;DHT22;23741;49.446;8.754;2023-08-08T03:13:08;16.20;72.50
37910;DHT22;23741;49.446;8.754;2023-08-08T03:15:10;16.20;72.50
37910;DHT22;23741;49.446;8.754;2023-08-08T03:17:13;16.20;72.60
37910;DHT22;23741;49.446;8.754;2023-08-08T03:19:15;16.10;72.90
37910;DHT22;23741;49.446;8.754;2023-08-08T03:21:17;16.10;72.90
37910;DHT22;23741;49.446;8.754;2023-08-08T03:23:19;16.10;73.10
37910;DHT22;23741;49.446;8.754;2023-08-08T03:25:22;16.10;73.00
37910;DHT22;23741;49.446;8.754;2023-08-08T03:27:24;16.20;73.10
37910;DHT22;23741;49.446;8.754;2023-08-08T03:29:27;16.20;72.50
37910;DHT22;23741;49.446;8.754;2023-08-08T03:31:31;16.10;72.90
37910;DHT22;23741;49.446;8.754;2023-08-08T03:33:34;16.10;73.20
37910;DHT22;23741;49.446;8.754;2023-08-08T03:35:38;16.10;73.50
37910;DHT22;23741;49.446;8.754;2023-08-08T03:37:40;16.10;73.60
37910;DHT22;23741;49.446;8.754;2023-08-08T03:39:46;16.10;73.50
37910;DHT22;23741;49.446;8.754;2023-08-08T03:41:47;16.10;73.60
37910;DHT22;23741;49.446;8.754;2023-08-08T03:43:49;16.10;73.50
37910;DHT22;23741;49.446;8.754;2023-08-08T03:45:52;16.10;73.40
37910;DHT22;23741;49.446;8.754;2023-08-08T03:47:54;16.10;73.60
37910;DHT22;23741;49.446;8.754;2023-08-08T03:49:56;16.10;73.50
37910;DHT22;23741;49.446;8.754;2023-08-08T03:51:59;16.10;73.50
37910;DHT22;23741;49.446;8.754;2023-08-08T03:54:01;16.10;73.50
37910;DHT22;23741;49.446;8.754;2023-08-08T03:56:03;16.10;73.60
37910;DHT22;23741;49.446;8.754;2023-08-08T03:58:05;16.10;73.60
37910;DHT22;23741;49.446;8.754;2023-08-08T04:00:08;16.10;73.70
37910;DHT22;23741;49.446;8.754;2023-08-08T04:02:16;16.10;73.80
37910;DHT22;23741;49.446;8.754;2023-08-08T04:04:18;16.20;74.00
37910;DHT22;23741;49.446;8.754;2023-08-08T04:06:20;16.20;74.20
37910;DHT22;23741;49.446;8.754;2023-08-08T04:08:22;16.20;74.10
37910;DHT22;23741;49.446;8.754;2023-08-08T04:10:24;16.20;74.10
37910;DHT22;23741;49.446;8.754;2023-08-08T04:12:26;16.20;74.10
37910;DHT22;23741;49.446;8.754;2023-08-08T04:14:28;16.20;74.10
37910;DHT22;23741;49.446;8.754;2023-08-08T04:16:30;16.20;73.90
37910;DHT22;23741;49.446;8.754;2023-08-08T04:18:32;16.20;74.10
37910;DHT22;23741;49.446;8.754;2023-08-08T04:20:34;16.20;74.10
37910;DHT22;23741;49.446;8.754;2023-08-08T04:22:36;16.20;74.10
37910;DHT22;23741;49.446;8.754;2023-08-08T04:24:38;16.30;74.00
37910;DHT22;23741;49.446;8.754;2023-08-08T04:26:40;16.20;73.70
37910;DHT22;23741;49.446;8.754;2023-08-08T04:28:42;16.30;73.80
37910;DHT22;23741;49.446;8.754;2023-08-08T04:30:44;16.30;73.80
37910;DHT22;23741;49.446;8.754;2023-08-08T04:32:45;16.20;73.80
37910;DHT22;23741;49.446;8.754;2023-08-08T04:34:47;16.20;73.70
37910;DHT22;23741;49.446;8.754;2023-08-08T04:36:49;16.20;73.80
37910;DHT22;23741;49.446;8.754;2023-08-08T04:38:51;16.20;73.70
37910;DHT22;23741;49.446;8.754;2023-08-08T04:40:52;16.30;73.80
37910;DHT22;23741;49.446;8.754;2023-08-08T04:42:54;16.30;73.60
37910;DHT22;23741;49.446;8.754;2023-08-08T04:44:56;16.30;73.50
37910;DHT22;23741;49.446;8.754;2023-08-08T04:46:58;16.30;73.70
37910;DHT22;23741;49.446;8.754;2023-08-08T04:49:00;16.30;73.70
37910;DHT22;23741;49.446;8.754;2023-08-08T04:51:01;16.30;73.60
37910;DHT22;23741;49.446;8.754;2023-08-08T04:53:03;16.30;73.90
37910;DHT22;23741;49.446;8.754;2023-08-08T04:55:06;16.20;73.80
37910;DHT22;23741;49.446;8.754;2023-08-08T04:57:07;16.30;73.90
37910;DHT22;23741;49.446;8.754;2023-08-08T04:59:09;16.30;73.90
37910;DHT22;23741;49.446;8.754;2023-08-08T05:01:11;16.30;73.80
37910;DHT22;23741;49.446;8.754;2023-08-08T05:03:19;16.30;74.60
37910;DHT22;23741;49.446;8.754;2023-08-08T05:05:21;16.30;74.10
37910;DHT22;23741;49.446;8.754;2023-08-08T05:07:23;16.30;74.20
37910;DHT22;23741;49.446;8.754;2023-08-08T05:09:25;16.20;74.30
37910;DHT22;23741;49.446;8.754;2023-08-08T05:11:28;16.30;74.40
37910;DHT22;23741;49.446;8.754;2023-08-08T05:13:29;16.30;74.50
37910;DHT22;23741;49.446;8.754;2023-08-08T05:15:31;16.30;74.50
37910;DHT22;23741;49.446;8.754;2023-08-08T05:17:33;16.30;74.70
37910;DHT22;23741;49.446;8.754;2023-08-08T05:19:35;16.30;74.90
37910;DHT22;23741;49.446;8.754;2023-08-08T05:21:37;16.40;74.80
37910;DHT22;23741;49.446;8.754;2023-08-08T05:23:39;16.40;74.80
37910;DHT22;23741;49.446;8.754;2023-08-08T05:25:41;16.40;74.80
37910;DHT22;23741;49.446;8.754;2023-08-08T05:27:42;16.40;74.80
37910;DHT22;23741;49.446;8.754;2023-08-08T05:29:47;16.50;74.90
37910;DHT22;23741;49.446;8.754;2023-08-08T05:31:49;16.40;75.00
37910;DHT22;23741;49.446;8.754;2023-08-08T05:33:51;16.50;75.00
37910;DHT22;23741;49.446;8.754;2023-08-08T05:35:53;16.50;75.00
37910;DHT22;23741;49.446;8.754;2023-08-08T05:37:54;16.50;75.00
37910;DHT22;23741;49.446;8.754;2023-08-08T05:39:56;16.50;74.90
37910;DHT22;23741;49.446;8.754;2023-08-08T05:41:58;16.50;74.80
37910;DHT22;23741;49.446;8.754;2023-08-08T05:44:00;16.50;74.80
37910;DHT22;23741;49.446;8.754;2023-08-08T05:46:02;16.50;74.80
37910;DHT22;23741;49.446;8.754;2023-08-08T05:48:04;16.50;74.70
37910;DHT22;23741;49.446;8.754;2023-08-08T05:50:06;16.60;74.50
37910;DHT22;23741;49.446;8.754;2023-08-08T05:52:09;16.60;74.60
37910;DHT22;23741;49.446;8.754;2023-08-08T05:54:11;16.60;74.80
37910;DHT22;23741;49.446;8.754;2023-08-08T05:56:14;16.60;74.80
37910;DHT22;23741;49.446;8.754;2023-08-08T05:58:15;16.60;74.70
37910;DHT22;23741;49.446;8.754;2023-08-08T06:00:17;16.60;74.70
37910;DHT22;23741;49.446;8.754;2023-08-08T06:02:19;16.60;74.60
37910;DHT22;23741;49.446;8.754;2023-08-08T06:04:21;16.60;74.50
37910;DHT22;23741;49.446;8.754;2023-08-08T06:06:23;16.60;74.40
37910;DHT22;23741;49.446;8.754;2023-08-08T06:08:25;16.70;74.60
37910;DHT22;23741;49.446;8.754;2023-08-08T06:10:26;16.70;74.70
37910;DHT22;23741;49.446;8.754;2023-08-08T06:12:28;16.70;74.80
37910;DHT22;23741;49.446;8.754;2023-08-08T06:14:30;16.70;74.80
37910;DHT22;23741;49.446;8.754;2023-08-08T06:16:32;16.70;74.60
37910;DHT22;23741;49.446;8.754;2023-08-08T06:18:34;16.70;74.50
37910;DHT22;23741;49.446;8.754;2023-08-08T06:20:36;16.80;74.70
37910;DHT22;23741;49.446;8.754;2023-08-08T06:22:38;16.80;74.70
37910;DHT22;23741;49.446;8.754;2023-08-08T06:24:40;16.80;74.50
37910;DHT22;23741;49.446;8.754;2023-08-08T06:26:42;16.80;74.50
37910;DHT22;23741;49.446;8.754;2023-08-08T06:28:44;16.80;74.50
37910;DHT22;23741;49.446;8.754;2023-08-08T06:30:46;16.90;74.70
37910;DHT22;23741;49.446;8.754;2023-08-08T06:32:47;16.90;74.80
37910;DHT22;23741;49.446;8.754;2023-08-08T06:34:49;16.90;74.70
37910;DHT22;23741;49.446;8.754;2023-08-08T06:36:51;17.00;74.90
37910;DHT22;23741;49.446;8.754;2023-08-08T06:38:53;17.00;74.70
37910;DHT22;23741;49.446;8.754;2023-08-08T06:40:55;17.00;74.80
37910;DHT22;23741;49.446;8.754;2023-08-08T06:42:58;17.00;74.50
37910;DHT22;23741;49.446;8.754;2023-08-08T06:44:59;17.10;74.60
37910;DHT22;23741;49.446;8.754;2023-08-08T06:47:01;17.20;74.80
37910;DHT22;23741;49.446;8.754;2023-08-08T06:49:03;17.20;74.80
37910;DHT22;23741;49.446;8.754;2023-08-08T06:51:05;17.20;74.70
37910;DHT22;23741;49.446;8.754;2023-08-08T06:53:07;17.20;74.50
37910;DHT22;23741;49.446;8.754;2023-08-08T06:55:09;17.30;74.30
37910;DHT22;23741;49.446;8.754;2023-08-08T06:57:11;17.30;74.40
37910;DHT22;23741;49.446;8.754;2023-08-08T06:59:13;17.30;74.40
37910;DHT22;23741;49.446;8.754;2023-08-08T07:01:15;17.40;74.00
37910;DHT22;23741;49.446;8.754;2023-08-08T07:03:16;17.50;74.20
37910;DHT22;23741;49.446;8.754;2023-08-08T07:05:18;17.40;74.10
37910;DHT22;23741;49.446;8.754;2023-08-08T07:07:20;17.50;73.60
37910;DHT22;23741;49.446;8.754;2023-08-08T07:09:24;17.50;73.60
37910;DHT22;23741;49.446;8.754;2023-08-08T07:11:26;17.50;73.70
37910;DHT22;23741;49.446;8.754;2023-08-08T07:13:28;17.60;73.50
37910;DHT22;23741;49.446;8.754;2023-08-08T07:15:30;17.50;73.00
37910;DHT22;23741;49.446;8.754;2023-08-08T07:17:32;17.60;73.10
37910;DHT22;23741;49.446;8.754;2023-08-08T07:19:35;17.60;73.20
37910;DHT22;23741;49.446;8.754;2023-08-08T07:21:38;17.60;73.10
37910;DHT22;23741;49.446;8.754;2023-08-08T07:23:39;17.60;73.20
37910;DHT22;23741;49.446;8.754;2023-08-08T07:25:41;17.60;73.50
37910;DHT22;23741;49.446;8.754;2023-08-08T07:27:43;17.60;73.50
37910;DHT22;23741;49.446;8.754;2023-08-08T07:29:45;17.70;73.30
37910;DHT22;23741;49.446;8.754;2023-08-08T07:31:47;17.70;73.20
37910;DHT22;23741;49.446;8.754;2023-08-08T07:33:49;17.70;73.10
37910;DHT22;23741;49.446;8.754;2023-08-08T07:35:50;17.70;72.80
37910;DHT22;23741;49.446;8.754;2023-08-08T07:37:52;17.80;73.70
37910;DHT22;23741;49.446;8.754;2023-08-08T07:39:55;17.80;72.80
37910;DHT22;23741;49.446;8.754;2023-08-08T07:41:57;17.80;72.90
37910;DHT22;23741;49.446;8.754;2023-08-08T07:43:59;17.80;73.60
37910;DHT22;23741;49.446;8.754;2023-08-08T07:46:01;17.90;72.70
37910;DHT22;23741;49.446;8.754;2023-08-08T07:48:04;17.90;71.70
37910;DHT22;23741;49.446;8.754;2023-08-08T07:50:07;17.90;71.60
37910;DHT22;23741;49.446;8.754;2023-08-08T07:52:12;17.90;71.00
37910;DHT22;23741;49.446;8.754;2023-08-08T07:54:13;18.00;70.90
37910;DHT22;23741;49.446;8.754;2023-08-08T07:56:15;18.00;71.20
37910;DHT22;23741;49.446;8.754;2023-08-08T07:58:17;18.00;69.80
37910;DHT22;23741;49.446;8.754;2023-08-08T08:00:19;18.10;69.80
37910;DHT22;23741;49.446;8.754;2023-08-08T08:02:21;18.10;70.20
37910;DHT22;23741;49.446;8.754;2023-08-08T08:04:23;18.10;70.70
37910;DHT22;23741;49.446;8.754;2023-08-08T08:06:25;18.10;70.80
37910;DHT22;23741;49.446;8.754;2023-08-08T08:08:27;18.10;69.20
37910;DHT22;23741;49.446;8.754;2023-08-08T08:10:29;18.20;69.40
37910;DHT22;23741;49.446;8.754;2023-08-08T08:12:31;18.30;69.70
37910;DHT22;23741;49.446;8.754;2023-08-08T08:14:33;18.30;69.50
37910;DHT22;23741;49.446;8.754;2023-08-08T08:16:35;18.30;69.10
37910;DHT22;23741;49.446;8.754;2023-08-08T08:18:37;18.40;68.90
37910;DHT22;23741;49.446;8.754;2023-08-08T08:20:39;18.40;69.30
37910;DHT22;23741;49.446;8.754;2023-08-08T08:22:41;18.40;69.00
37910;DHT22;23741;49.446;8.754;2023-08-08T08:24:43;18.50;68.90
37910;DHT22;23741;49.446;8.754;2023-08-08T08:26:45;18.50;69.10
37910;DHT22;23741;49.446;8.754;2023-08-08T08:28:47;18.50;69.40
37910;DHT22;23741;49.446;8.754;2023-08-08T08:30:49;18.60;69.20
37910;DHT22;23741;49.446;8.754;2023-08-08T08:32:51;18.60;69.00
37910;DHT22;23741;49.446;8.754;2023-08-08T08:34:53;18.60;68.50
37910;DHT22;23741;49.446;8.754;2023-08-08T08:36:55;18.70;68.50
37910;DHT22;23741;49.446;8.754;2023-08-08T08:38:57;18.70;68.30
37910;DHT22;23741;49.446;8.754;2023-08-08T08:40:59;18.80;67.60
37910;DHT22;23741;49.446;8.754;2023-08-08T08:43:01;18.80;67.40
37910;DHT22;23741;49.446;8.754;2023-08-08T08:45:03;18.80;67.00
37910;DHT22;23741;49.446;8.754;2023-08-08T08:47:08;18.90;67.30
37910;DHT22;23741;49.446;8.754;2023-08-08T08:49:12;18.90;67.40
37910;DHT22;23741;49.446;8.754;2023-08-08T08:51:15;18.90;67.50
37910;DHT22;23741;49.446;8.754;2023-08-08T08:53:17;19.00;67.50
37910;DHT22;23741;49.446;8.754;2023-08-08T08:55:19;19.00;67.20
37910;DHT22;23741;49.446;8.754;2023-08-08T08:57:22;19.00;67.00
37910;DHT22;23741;49.446;8.754;2023-08-08T08:59:25;19.00;66.70
37910;DHT22;23741;49.446;8.754;2023-08-08T09:01:27;19.10;66.60
37910;DHT22;23741;49.446;8.754;2023-08-08T09:03:29;19.10;67.00
37910;DHT22;23741;49.446;8.754;2023-08-08T09:05:32;19.20;67.00
37910;DHT22;23741;49.446;8.754;2023-08-08T09:07:35;19.20;66.20
37910;DHT22;23741;49.446;8.754;2023-08-08T09:09:38;19.20;66.60
37910;DHT22;23741;49.446;8.754;2023-08-08T09:11:40;19.20;65.80
37910;DHT22;23741;49.446;8.754;2023-08-08T09:13:42;19.20;65.30
37910;DHT22;23741;49.446;8.754;2023-08-08T09:15:47;19.30;65.30
37910;DHT22;23741;49.446;8.754;2023-08-08T09:17:50;19.30;65.40
37910;DHT22;23741;49.446;8.754;2023-08-08T09:19:55;19.30;65.50
37910;DHT22;23741;49.446;8.754;2023-08-08T09:21:57;19.30;65.10
37910;DHT22;23741;49.446;8.754;2023-08-08T09:23:59;19.40;65.10
37910;DHT22;23741;49.446;8.754;2023-08-08T09:26:05;19.40;65.40
37910;DHT22;23741;49.446;8.754;2023-08-08T09:28:07;19.50;65.30
37910;DHT22;23741;49.446;8.754;2023-08-08T09:30:10;19.50;64.90
37910;DHT22;23741;49.446;8.754;2023-08-08T09:32:14;19.50;64.70
37910;DHT22;23741;49.446;8.754;2023-08-08T09:34:24;19.60;64.10
37910;DHT22;23741;49.446;8.754;2023-08-08T09:36:27;19.60;63.10
37910;DHT22;23741;49.446;8.754;2023-08-08T09:38:31;19.60;63.70
37910;DHT22;23741;49.446;8.754;2023-08-08T09:40:33;19.70;64.70
37910;DHT22;23741;49.446;8.754;2023-08-08T09:42:35;19.70;64.40
37910;DHT22;23741;49.446;8.754;2023-08-08T09:44:37;19.80;64.00
37910;DHT22;23741;49.446;8.754;2023-08-08T09:46:39;19.80;63.10
37910;DHT22;23741;49.446;8.754;2023-08-08T09:48:42;19.80;63.20
37910;DHT22;23741;49.446;8.754;2023-08-08T09:50:44;19.90;63.10
37910;DHT22;23741;49.446;8.754;2023-08-08T09:52:47;19.90;62.00
37910;DHT22;23741;49.446;8.754;2023-08-08T09:54:49;19.90;61.40
37910;DHT22;23741;49.446;8.754;2023-08-08T09:56:51;20.00;61.40
37910;DHT22;23741;49.446;8.754;2023-08-08T09:58:53;20.00;61.50
37910;DHT22;23741;49.446;8.754;2023-08-08T10:00:59;20.00;61.30
37910;DHT22;23741;49.446;8.754;2023-08-08T10:03:01;20.00;61.00
37910;DHT22;23741;49.446;8.754;2023-08-08T10:05:04;20.10;60.40
37910;DHT22;23741;49.446;8.754;2023-08-08T10:07:06;20.10;60.90
37910;DHT22;23741;49.446;8.754;2023-08-08T10:09:08;20.20;61.20
37910;DHT22;23741;49.446;8.754;2023-08-08T10:11:11;20.20;61.00
37910;DHT22;23741;49.446;8.754;2023-08-08T10:13:22;20.20;61.50
37910;DHT22;23741;49.446;8.754;2023-08-08T10:15:27;20.30;59.50
37910;DHT22;23741;49.446;8.754;2023-08-08T10:17:38;20.30;59.60
37910;DHT22;23741;49.446;8.754;2023-08-08T10:19:48;20.40;59.70
37910;DHT22;23741;49.446;8.754;2023-08-08T10:21:58;20.40;60.20
37910;DHT22;23741;49.446;8.754;2023-08-08T10:24:10;20.60;59.30
37910;DHT22;23741;49.446;8.754;2023-08-08T10:26:19;20.60;59.40
37910;DHT22;23741;49.446;8.754;2023-08-08T10:28:21;20.70;59.30
37910;DHT22;23741;49.446;8.754;2023-08-08T10:30:28;20.70;59.50
37910;DHT22;23741;49.446;8.754;2023-08-08T10:32:38;20.80;59.30
37910;DHT22;23741;49.446;8.754;2023-08-08T10:34:42;20.80;58.00
37910;DHT22;23741;49.446;8.754;2023-08-08T10:36:49;20.90;59.00
37910;DHT22;23741;49.446;8.754;2023-08-08T10:38:52;20.90;58.30
37910;DHT22;23741;49.446;8.754;2023-08-08T10:40:59;21.00;58.40
37910;DHT22;23741;49.446;8.754;2023-08-08T10:43:11;21.10;58.00
37910;DHT22;23741;49.446;8.754;2023-08-08T10:45:15;21.10;56.70
37910;DHT22;23741;49.446;8.754;2023-08-08T10:47:36;21.10;57.80
37910;DHT22;23741;49.446;8.754;2023-08-08T10:49:38;21.20;56.90
37910;DHT22;23741;49.446;8.754;2023-08-08T10:51:44;21.30;57.80
37910;DHT22;23741;49.446;8.754;2023-08-08T10:53:52;21.30;57.10
37910;DHT22;23741;49.446;8.754;2023-08-08T10:56:04;21.30;56.40
37910;DHT22;23741;49.446;8.754;2023-08-08T10:58:13;21.40;56.00
37910;DHT22;23741;49.446;8.754;2023-08-08T11:00:17;21.50;57.00
37910;DHT22;23741;49.446;8.754;2023-08-08T11:02:20;21.50;56.80
37910;DHT22;23741;49.446;8.754;2023-08-08T11:04:23;21.60;57.40
37910;DHT22;23741;49.446;8.754;2023-08-08T11:06:27;21.70;57.50
37910;DHT22;23741;49.446;8.754;2023-08-08T11:08:33;21.70;58.00
37910;DHT22;23741;49.446;8.754;2023-08-08T11:10:38;21.80;57.50
37910;DHT22;23741;49.446;8.754;2023-08-08T11:12:40;21.90;57.20
37910;DHT22;23741;49.446;8.754;2023-08-08T11:14:42;22.00;57.00
37910;DHT22;23741;49.446;8.754;2023-08-08T11:16:47;22.00;56.70
37910;DHT22;23741;49.446;8.754;2023-08-08T11:18:49;22.10;55.70
37910;DHT22;23741;49.446;8.754;2023-08-08T11:20:51;22.20;55.40
37910;DHT22;23741;49.446;8.754;2023-08-08T11:23:03;22.20;55.50
37910;DHT22;23741;49.446;8.754;2023-08-08T11:25:07;22.30;55.50
37910;DHT22;23741;49.446;8.754;2023-08-08T11:27:09;22.30;55.10
37910;DHT22;23741;49.446;8.754;2023-08-08T11:29:11;22.40;55.40
37910;DHT22;23741;49.446;8.754;2023-08-08T11:31:13;22.40;55.50
37910;DHT22;23741;49.446;8.754;2023-08-08T11:33:15;22.40;54.80
37910;DHT22;23741;49.446;8.754;2023-08-08T11:35:22;22.50;54.00
37910;DHT22;23741;49.446;8.754;2023-08-08T11:37:24;22.50;53.20
37910;DHT22;23741;49.446;8.754;2023-08-08T11:39:27;22.60;53.80
37910;DHT22;23741;49.446;8.754;2023-08-08T11:41:29;22.60;53.70
37910;DHT22;23741;49.446;8.754;2023-08-08T11:43:31;22.60;54.80
37910;DHT22;23741;49.446;8.754;2023-08-08T11:45:34;22.60;53.60
37910;DHT22;23741;49.446;8.754;2023-08-08T11:47:37;22.60;53.90
37910;DHT22;23741;49.446;8.754;2023-08-08T11:49:42;22.60;53.70
37910;DHT22;23741;49.446;8.754;2023-08-08T11:51:45;22.70;53.60
37910;DHT22;23741;49.446;8.754;2023-08-08T11:53:51;22.60;53.60
37910;DHT22;23741;49.446;8.754;2023-08-08T11:55:53;22.70;52.80
37910;DHT22;23741;49.446;8.754;2023-08-08T11:57:56;22.70;52.90
37910;DHT22;23741;49.446;8.754;2023-08-08T12:00:09;22.70;52.20
37910;DHT22;23741;49.446;8.754;2023-08-08T12:02:14;22.70;52.30
37910;DHT22;23741;49.446;8.754;2023-08-08T12:04:16;22.70;52.30
37910;DHT22;23741;49.446;8.754;2023-08-08T12:06:22;22.80;52.90
37910;DHT22;23741;49.446;8.754;2023-08-08T12:08:30;22.80;52.80
37910;DHT22;23741;49.446;8.754;2023-08-08T12:10:32;22.80;52.50
37910;DHT22;23741;49.446;8.754;2023-08-08T12:12:34;22.80;52.40
37910;DHT22;23741;49.446;8.754;2023-08-08T12:14:42;22.90;52.00
37910;DHT22;23741;49.446;8.754;2023-08-08T12:16:57;22.90;51.10
37910;DHT22;23741;49.446;8.754;2023-08-08T12:19:06;23.00;52.10
37910;DHT22;23741;49.446;8.754;2023-08-08T12:21:09;23.00;51.90
37910;DHT22;23741;49.446;8.754;2023-08-08T12:23:12;23.10;51.40
37910;DHT22;23741;49.446;8.754;2023-08-08T12:25:13;23.10;52.20
37910;DHT22;23741;49.446;8.754;2023-08-08T12:27:15;23.20;53.10
37910;DHT22;23741;49.446;8.754;2023-08-08T12:29:17;23.30;53.60
37910;DHT22;23741;49.446;8.754;2023-08-08T12:31:19;23.30;52.30
37910;DHT22;23741;49.446;8.754;2023-08-08T12:33:21;23.40;51.70
37910;DHT22;23741;49.446;8.754;2023-08-08T12:35:23;23.50;50.90
37910;DHT22;23741;49.446;8.754;2023-08-08T12:37:27;23.60;51.90
37910;DHT22;23741;49.446;8.754;2023-08-08T12:39:29;23.70;50.60
37910;DHT22;23741;49.446;8.754;2023-08-08T12:41:31;23.80;51.00
37910;DHT22;23741;49.446;8.754;2023-08-08T12:43:33;23.90;50.40
37910;DHT22;23741;49.446;8.754;2023-08-08T12:45:35;23.90;50.40
37910;DHT22;23741;49.446;8.754;2023-08-08T12:47:37;24.00;50.70
37910;DHT22;23741;49.446;8.754;2023-08-08T12:49:39;24.10;50.90
37910;DHT22;23741;49.446;8.754;2023-08-08T12:51:41;24.20;50.50
37910;DHT22;23741;49.446;8.754;2023-08-08T12:53:43;24.20;49.60
37910;DHT22;23741;49.446;8.754;2023-08-08T12:55:45;24.30;51.00
37910;DHT22;23741;49.446;8.754;2023-08-08T12:57:47;24.40;50.80